createdAt,value
2022-12-27T00:00:58.277Z,83.39
2022-12-27T00:03:48.019Z,83.85
2022-12-27T00:06:38.746Z,83.57
2022-12-27T00:09:28.081Z,83.74
2022-12-27T00:12:17.565Z,83.45
2022-12-27T00:15:08.511Z,83.98
2022-12-27T00:17:57.912Z,83.61
2022-12-27T00:20:47.218Z,83.94
2022-12-27T00:23:40.465Z,83.45
2022-12-27T00:26:32.293Z,83.48
2022-12-27T00:29:21.655Z,83.49
2022-12-27T00:32:10.996Z,83.19
2022-12-27T00:35:00.300Z,82.73
2022-12-27T00:37:49.570Z,82.84
2022-12-27T00:40:42.705Z,83.03
2022-12-27T00:43:31.948Z,83.12
2022-12-27T00:46:21.711Z,83.25
2022-12-27T00:49:11.288Z,83.31
2022-12-27T00:52:00.625Z,82.97
2022-12-27T00:54:49.884Z,82.74
2022-12-27T00:57:40.514Z,82.63
2022-12-27T01:00:30.673Z,82.61
2022-12-27T01:03:21.425Z,83.14
2022-12-27T01:06:14.026Z,82.68
2022-12-27T01:09:05.158Z,82.84
2022-12-27T01:11:54.478Z,82.55
2022-12-27T01:14:45.147Z,82.43
2022-12-27T01:17:34.391Z,82.79
2022-12-27T01:20:23.747Z,82.80
2022-12-27T01:23:12.978Z,82.24
2022-12-27T01:26:03.536Z,82.76
2022-12-27T01:28:54.619Z,83.13
2022-12-27T01:31:45.946Z,82.67
2022-12-27T01:34:36.001Z,83.42
2022-12-27T01:37:25.775Z,83.24
2022-12-27T01:40:15.563Z,82.87
2022-12-27T01:43:04.330Z,82.98
2022-12-27T01:45:53.619Z,82.63
2022-12-27T01:48:44.546Z,82.94
2022-12-27T01:51:34.325Z,82.47
2022-12-27T01:54:23.825Z,82.28
2022-12-27T01:57:13.511Z,82.47
2022-12-27T02:00:03.224Z,81.79
2022-12-27T02:02:54.622Z,82.53
2022-12-27T02:05:45.621Z,82.46
2022-12-27T02:08:46.698Z,82.32
2022-12-27T02:11:53.386Z,81.89
2022-12-27T02:14:46.005Z,82.26
2022-12-27T02:17:36.746Z,81.63
2022-12-27T02:20:27.214Z,80.91
2022-12-27T02:24:06.987Z,81.09
2022-12-27T02:27:07.843Z,81.10
2022-12-27T02:30:06.188Z,80.89
2022-12-27T02:33:04.255Z,80.60
2022-12-27T02:35:59.421Z,80.79
2022-12-27T02:38:53.196Z,80.98
2022-12-27T02:42:01.207Z,80.71
2022-12-27T02:45:08.854Z,80.44
2022-12-27T02:48:17.807Z,80.57
2022-12-27T02:51:40.379Z,80.23
2022-12-27T02:54:53.264Z,80.32
2022-12-27T02:57:49.689Z,79.56
2022-12-27T03:01:07.031Z,80.28
2022-12-27T03:04:16.217Z,78.71
2022-12-27T03:07:25.861Z,78.87
2022-12-27T03:10:45.566Z,79.52
2022-12-27T03:14:01.006Z,79.29
2022-12-27T03:16:56.835Z,78.78
2022-12-27T03:20:10.001Z,79.04
2022-12-27T03:23:18.630Z,79.04
2022-12-27T03:26:10.381Z,77.97
2022-12-27T03:29:19.589Z,78.22
2022-12-27T03:32:30.528Z,77.46
2022-12-27T03:35:24.102Z,77.45
2022-12-27T03:38:14.207Z,77.22
2022-12-27T03:41:24.705Z,77.04
2022-12-27T03:44:25.308Z,77.52
2022-12-27T03:47:22.203Z,77.06
2022-12-27T03:50:20.821Z,77.40
2022-12-27T03:53:17.280Z,77.34
2022-12-27T03:56:08.813Z,76.81
2022-12-27T03:59:00.648Z,77.22
2022-12-27T04:01:50.379Z,77.48
2022-12-27T04:04:40.066Z,77.24
2022-12-27T04:07:29.289Z,77.62
2022-12-27T04:10:37.445Z,77.45
2022-12-27T04:13:44.036Z,77.83
2022-12-27T04:16:50.352Z,77.88
2022-12-27T04:19:56.940Z,78.17
2022-12-27T04:23:03.548Z,77.74
2022-12-27T04:26:11.631Z,78.34
2022-12-27T04:29:18.623Z,77.81
2022-12-27T04:32:25.049Z,78.09
2022-12-27T04:35:14.497Z,78.80
2022-12-27T04:38:03.691Z,78.34
2022-12-27T04:41:11.715Z,78.99
2022-12-27T04:44:21.117Z,79.37
2022-12-27T04:47:31.142Z,79.56
2022-12-27T04:50:45.704Z,79.53
2022-12-27T04:53:52.601Z,79.65
2022-12-27T04:56:43.251Z,80.19
2022-12-27T04:59:50.054Z,79.98
2022-12-27T05:02:39.779Z,80.20
2022-12-27T05:05:29.431Z,80.59
2022-12-27T05:08:37.354Z,80.62
2022-12-27T05:11:44.321Z,81.26
2022-12-27T05:14:34.992Z,81.12
2022-12-27T05:17:24.275Z,81.85
2022-12-27T05:20:13.634Z,81.15
2022-12-27T05:23:20.497Z,81.60
2022-12-27T05:26:09.732Z,81.80
2022-12-27T05:29:00.544Z,81.83
2022-12-27T05:31:51.133Z,82.27
2022-12-27T05:34:40.407Z,82.52
2022-12-27T05:37:29.808Z,82.37
2022-12-27T05:40:19.203Z,82.75
2022-12-27T05:43:08.434Z,82.79
2022-12-27T05:46:04.014Z,83.37
2022-12-27T05:48:54.623Z,83.11
2022-12-27T05:51:43.873Z,83.66
2022-12-27T05:54:33.158Z,83.22
2022-12-27T05:57:22.495Z,83.47
2022-12-27T06:00:14.367Z,83.00
2022-12-27T06:03:04.376Z,83.50
2022-12-27T06:06:02.764Z,83.85
2022-12-27T06:08:51.993Z,83.96
2022-12-27T06:11:41.194Z,83.65
2022-12-27T06:14:30.478Z,84.17
2022-12-27T06:17:19.673Z,84.37
2022-12-27T06:20:09.855Z,84.44
2022-12-27T06:23:02.219Z,85.75
2022-12-27T06:25:51.625Z,87.51
2022-12-27T06:28:40.835Z,87.60
2022-12-27T06:31:32.594Z,88.33
2022-12-27T06:34:21.830Z,87.99
2022-12-27T06:37:11.088Z,88.09
2022-12-27T06:40:01.874Z,87.71
2022-12-27T06:42:51.338Z,86.83
2022-12-27T06:45:40.798Z,86.57
2022-12-27T06:48:30.745Z,86.70
2022-12-27T06:51:22.237Z,86.10
2022-12-27T06:54:11.817Z,87.12
2022-12-27T06:57:02.397Z,86.69
2022-12-27T06:59:54.178Z,85.86
2022-12-27T07:02:44.255Z,85.97
2022-12-27T07:05:35.896Z,85.61
2022-12-27T07:08:25.120Z,84.88
2022-12-27T07:11:15.794Z,85.20
2022-12-27T07:14:10.228Z,85.56
2022-12-27T07:16:59.468Z,85.50
2022-12-27T07:19:48.767Z,85.49
2022-12-27T07:22:38.052Z,85.31
2022-12-27T07:25:27.341Z,85.22
2022-12-27T07:28:17.149Z,85.21
2022-12-27T07:31:10.284Z,85.68
2022-12-27T07:33:59.994Z,85.12
2022-12-27T07:36:49.749Z,85.62
2022-12-27T07:39:39.038Z,85.35
2022-12-27T07:42:29.757Z,85.17
2022-12-27T07:45:19.255Z,85.19
2022-12-27T07:48:10.630Z,85.37
2022-12-27T07:51:00.044Z,85.16
2022-12-27T07:53:50.329Z,84.54
2022-12-27T07:56:39.611Z,85.03
2022-12-27T07:59:28.939Z,84.88
2022-12-27T08:02:18.305Z,85.64
2022-12-27T08:05:10.084Z,84.86
2022-12-27T08:08:03.620Z,85.04
2022-12-27T08:10:53.486Z,85.80
2022-12-27T08:13:42.747Z,85.86
2022-12-27T08:16:32.158Z,85.78
2022-12-27T08:19:21.453Z,85.73
2022-12-27T08:22:12.227Z,85.16
2022-12-27T08:25:01.526Z,86.12
2022-12-27T08:27:50.780Z,85.68
2022-12-27T08:30:41.527Z,85.17
2022-12-27T08:33:31.546Z,85.31
2022-12-27T08:39:31.371Z,85.03
2022-12-27T08:42:20.773Z,85.39
2022-12-27T08:45:11.550Z,85.27
2022-12-27T08:48:03.087Z,85.82
2022-12-27T08:50:52.433Z,85.35
2022-12-27T08:53:41.729Z,85.59
2022-12-27T08:56:32.473Z,86.80
2022-12-27T08:59:21.747Z,86.29
2022-12-27T09:02:12.182Z,86.13
2022-12-27T09:05:01.622Z,86.10
2022-12-27T09:07:51.155Z,85.85
2022-12-27T09:10:40.874Z,85.97
2022-12-27T09:13:31.532Z,85.41
2022-12-27T09:16:23.339Z,85.72
2022-12-27T09:19:13.506Z,85.63
2022-12-27T09:22:02.808Z,86.18
2022-12-27T09:24:52.121Z,86.54
2022-12-27T09:27:41.420Z,86.26
2022-12-27T09:30:32.108Z,86.18
2022-12-27T09:33:21.391Z,87.08
2022-12-27T09:36:13.014Z,87.60
2022-12-27T09:39:02.242Z,87.53
2022-12-27T09:45:18.861Z,87.74
2022-12-27T09:48:15.887Z,87.35
2022-12-27T09:51:14.663Z,87.32
2022-12-27T09:54:13.093Z,86.73
2022-12-27T09:57:19.918Z,87.04
2022-12-27T10:00:19.584Z,87.60
2022-12-27T10:03:28.824Z,86.72
2022-12-27T10:06:56.623Z,87.34
2022-12-27T10:10:00.203Z,87.48
2022-12-27T10:13:12.236Z,87.53
2022-12-27T10:16:16.492Z,87.51
2022-12-27T10:19:25.238Z,86.62
2022-12-27T10:22:24.692Z,86.68
2022-12-27T10:25:17.113Z,86.21
2022-12-27T10:28:17.346Z,86.36
2022-12-27T10:31:08.348Z,85.97
2022-12-27T10:33:58.278Z,85.76
2022-12-27T10:36:49.029Z,86.21
2022-12-27T10:39:39.279Z,85.64
2022-12-27T10:42:38.827Z,85.38
2022-12-27T10:45:33.523Z,84.96
2022-12-27T10:48:28.837Z,85.03
2022-12-27T10:51:23.525Z,84.47
2022-12-27T10:54:17.510Z,84.12
2022-12-27T10:57:25.555Z,84.65
2022-12-27T11:00:20.630Z,84.39
2022-12-27T11:03:20.840Z,84.07
2022-12-27T11:06:24.371Z,83.85
2022-12-27T11:09:28.735Z,84.07
2022-12-27T11:12:21.884Z,83.69
2022-12-27T11:15:18.768Z,83.68
2022-12-27T11:18:17.297Z,83.67
2022-12-27T11:21:08.333Z,84.08
2022-12-27T11:24:03.461Z,84.14
2022-12-27T11:26:59.379Z,84.05
2022-12-27T11:29:49.158Z,84.13
2022-12-27T11:32:38.503Z,84.06
2022-12-27T11:35:27.851Z,83.67
2022-12-27T11:38:26.332Z,84.08
2022-12-27T11:41:27.754Z,84.22
2022-12-27T11:44:28.125Z,84.53
2022-12-27T11:47:37.067Z,84.85
2022-12-27T11:51:14.591Z,84.83
2022-12-27T11:54:21.811Z,85.36
2022-12-27T11:57:26.367Z,84.81
2022-12-27T12:00:21.893Z,85.01
2022-12-27T12:03:54.017Z,84.47
2022-12-27T12:06:56.748Z,84.29
2022-12-27T12:10:11.618Z,83.94
2022-12-27T12:13:30.817Z,84.23
2022-12-27T12:16:53.594Z,84.81
2022-12-27T12:20:04.542Z,85.22
2022-12-27T12:23:12.135Z,85.72
2022-12-27T12:26:19.219Z,85.37
2022-12-27T12:29:30.056Z,84.98
2022-12-27T12:32:39.699Z,84.64
2022-12-27T12:36:08.278Z,84.39
2022-12-27T12:39:10.702Z,84.04
2022-12-27T12:42:18.679Z,83.91
2022-12-27T12:45:36.628Z,83.11
2022-12-27T12:48:49.417Z,84.05
2022-12-27T12:52:10.717Z,84.00
2022-12-27T12:55:51.711Z,84.49
2022-12-27T12:58:54.904Z,84.61
2022-12-27T13:02:02.752Z,84.66
2022-12-27T13:05:14.807Z,85.04
2022-12-27T13:08:13.754Z,85.51
2022-12-27T13:11:34.425Z,85.85
2022-12-27T13:14:56.136Z,86.63
2022-12-27T13:18:00.449Z,86.65
2022-12-27T13:21:18.248Z,86.34
2022-12-27T13:24:20.479Z,86.46
2022-12-27T13:27:22.979Z,87.13
2022-12-27T13:30:23.500Z,87.29
2022-12-27T13:33:27.743Z,87.04
2022-12-27T13:36:26.905Z,87.54
2022-12-27T13:39:37.087Z,87.34
2022-12-27T13:43:07.485Z,87.58
2022-12-27T13:46:18.879Z,86.95
2022-12-27T13:49:31.560Z,87.13
2022-12-27T13:52:45.903Z,87.11
2022-12-27T13:55:56.953Z,86.78
2022-12-27T13:59:14.853Z,86.63
2022-12-27T14:02:35.912Z,86.65
2022-12-27T14:06:17.989Z,86.80
2022-12-27T14:09:49.077Z,87.40
2022-12-27T14:13:02.927Z,87.16
2022-12-27T14:16:24.422Z,87.20
2022-12-27T14:19:39.761Z,86.96
2022-12-27T14:23:00.818Z,87.62
2022-12-27T14:26:42.970Z,88.12
2022-12-27T14:30:24.306Z,88.66
2022-12-27T14:34:10.817Z,87.45
2022-12-27T14:37:39.652Z,87.54
2022-12-27T14:41:13.339Z,87.47
2022-12-27T14:44:44.734Z,86.45
2022-12-27T14:48:05.984Z,86.88
2022-12-27T14:55:37.417Z,86.42
2022-12-27T14:58:54.884Z,86.19
2022-12-27T15:02:07.646Z,86.19
2022-12-27T15:05:32.457Z,86.61
2022-12-27T15:08:43.408Z,86.20
2022-12-27T15:12:01.402Z,86.44
2022-12-27T15:15:18.429Z,86.68
2022-12-27T15:18:36.169Z,87.18
2022-12-27T15:21:53.730Z,86.51
2022-12-27T15:24:57.164Z,86.92
2022-12-27T15:27:56.069Z,87.36
2022-12-27T15:30:56.467Z,87.93
2022-12-27T15:34:00.372Z,88.74
2022-12-27T15:36:52.095Z,88.39
2022-12-27T15:39:52.025Z,88.31
2022-12-27T15:42:51.736Z,88.60
2022-12-27T15:45:55.626Z,88.28
2022-12-27T15:49:18.876Z,88.20
2022-12-27T15:52:19.166Z,88.08
2022-12-27T15:55:35.594Z,87.85
2022-12-27T15:58:26.222Z,87.54
2022-12-27T16:01:30.228Z,87.20
2022-12-27T16:04:52.299Z,86.66
2022-12-27T16:07:48.165Z,86.39
2022-12-27T16:10:51.972Z,86.43
2022-12-27T16:13:45.874Z,86.46
2022-12-27T16:16:59.342Z,86.26
2022-12-27T16:20:12.467Z,87.31
2022-12-27T16:23:04.644Z,86.87
2022-12-27T16:26:04.244Z,87.54
2022-12-27T16:28:59.264Z,87.25
2022-12-27T16:31:53.626Z,87.57
2022-12-27T16:34:44.504Z,87.51
2022-12-27T16:37:45.219Z,87.30
2022-12-27T16:40:49.658Z,87.59
2022-12-27T16:43:56.093Z,87.62
2022-12-27T16:47:03.494Z,86.78
2022-12-27T16:50:06.672Z,86.58
2022-12-27T16:53:13.765Z,86.17
2022-12-27T16:56:22.863Z,85.94
2022-12-27T16:59:58.171Z,85.46
2022-12-27T17:02:49.257Z,85.35
2022-12-27T17:05:44.835Z,85.63
2022-12-27T17:08:44.301Z,85.27
2022-12-27T17:11:35.749Z,85.55
2022-12-27T17:14:30.230Z,85.15
2022-12-27T17:17:24.480Z,85.16
2022-12-27T17:20:19.124Z,85.42
2022-12-27T17:23:09.528Z,85.10
2022-12-27T17:26:30.385Z,85.70
2022-12-27T17:30:04.404Z,85.84
2022-12-27T17:33:40.056Z,85.91
2022-12-27T17:36:50.479Z,86.01
2022-12-27T17:40:17.407Z,85.59
2022-12-27T17:43:42.032Z,85.70
2022-12-27T17:46:41.011Z,85.73
2022-12-27T17:49:33.797Z,85.76
2022-12-27T17:52:44.978Z,86.31
2022-12-27T17:55:52.181Z,86.64
2022-12-27T17:58:43.991Z,86.59
2022-12-27T18:01:38.246Z,86.78
2022-12-27T18:04:32.244Z,86.92
2022-12-27T18:07:27.772Z,87.20
2022-12-27T18:10:24.225Z,87.63
2022-12-27T18:13:21.127Z,88.31
2022-12-27T18:16:20.498Z,88.26
2022-12-27T18:19:18.444Z,87.99
2022-12-27T18:22:20.356Z,87.89
2022-12-27T18:25:25.996Z,87.88
2022-12-27T18:28:20.398Z,87.04
2022-12-27T18:31:19.115Z,86.74
2022-12-27T18:34:18.095Z,86.32
2022-12-27T18:37:10.574Z,86.69
2022-12-27T18:40:04.805Z,86.78
2022-12-27T18:42:56.217Z,86.77
2022-12-27T18:45:48.530Z,85.90
2022-12-27T18:48:42.950Z,86.14
2022-12-27T18:51:38.773Z,86.21
2022-12-27T18:54:37.033Z,86.13
2022-12-27T18:57:38.275Z,85.62
2022-12-27T19:00:29.393Z,84.65
2022-12-27T19:03:21.280Z,84.62
2022-12-27T19:06:14.464Z,84.08
2022-12-27T19:09:03.729Z,84.16
2022-12-27T19:11:55.642Z,83.61
2022-12-27T19:14:47.532Z,83.53
2022-12-27T19:17:40.359Z,83.13
2022-12-27T19:20:32.875Z,82.15
2022-12-27T19:23:35.086Z,81.73
2022-12-27T19:26:31.354Z,81.66
2022-12-27T19:29:23.025Z,81.58
2022-12-27T19:32:12.371Z,81.50
2022-12-27T19:35:04.394Z,80.91
2022-12-27T19:37:53.765Z,80.80
2022-12-27T19:40:44.446Z,80.44
2022-12-27T19:43:39.630Z,81.07
2022-12-27T19:46:31.273Z,81.06
2022-12-27T19:49:42.280Z,80.62
2022-12-27T19:52:30.073Z,80.67
2022-12-27T19:55:26.026Z,80.05
2022-12-27T19:58:23.282Z,80.11
2022-12-27T20:01:12.598Z,80.16
2022-12-27T20:04:01.968Z,80.20
2022-12-27T20:06:51.357Z,79.92
2022-12-27T20:09:40.652Z,80.36
2022-12-27T20:12:29.959Z,79.88
2022-12-27T20:15:20.597Z,80.20
2022-12-27T20:18:11.448Z,80.09
2022-12-27T20:21:00.754Z,80.45
2022-12-27T20:23:51.676Z,80.42
2022-12-27T20:26:41.571Z,80.27
2022-12-27T20:29:31.282Z,80.63
2022-12-27T20:32:22.350Z,80.99
2022-12-27T20:35:11.909Z,80.80
2022-12-27T20:38:01.386Z,81.06
2022-12-27T20:40:50.648Z,80.81
2022-12-27T20:43:40.089Z,80.52
2022-12-27T20:46:29.806Z,80.80
2022-12-27T20:49:20.465Z,81.19
2022-12-27T20:52:09.787Z,81.00
2022-12-27T20:55:00.001Z,81.30
2022-12-27T20:57:49.246Z,81.07
2022-12-27T21:00:41.157Z,80.95
2022-12-27T21:03:30.470Z,80.75
2022-12-27T21:06:23.888Z,81.09
2022-12-27T21:09:13.127Z,80.97
2022-12-27T21:12:02.365Z,81.38
2022-12-27T21:14:52.360Z,81.13
2022-12-27T21:17:41.565Z,80.78
2022-12-27T21:20:30.712Z,81.12
2022-12-27T21:23:21.441Z,81.10
2022-12-27T21:26:13.189Z,81.13
2022-12-27T21:29:04.317Z,81.07
2022-12-27T21:31:53.701Z,80.95
2022-12-27T21:34:43.043Z,80.86
2022-12-27T21:37:32.445Z,80.80
2022-12-27T21:40:23.466Z,80.32
2022-12-27T21:43:12.766Z,80.43
2022-12-27T21:46:07.730Z,80.71
2022-12-27T21:48:59.888Z,80.76
2022-12-27T21:51:49.856Z,80.58
2022-12-27T21:54:39.118Z,80.37
2022-12-27T21:57:29.803Z,80.37
2022-12-27T22:00:19.307Z,80.54
2022-12-27T22:03:08.917Z,80.28
2022-12-27T22:05:58.213Z,80.34
2022-12-27T22:08:49.878Z,80.08
2022-12-27T22:11:40.052Z,79.58
2022-12-27T22:14:36.639Z,79.71
2022-12-27T22:17:26.384Z,79.58
2022-12-27T22:20:15.618Z,79.26
2022-12-27T22:23:04.962Z,79.26
2022-12-27T22:25:54.330Z,79.02
2022-12-27T22:28:43.860Z,78.77
2022-12-27T22:31:37.960Z,78.78
2022-12-27T22:34:27.561Z,78.59
2022-12-27T22:37:16.859Z,78.19
2022-12-27T22:40:07.633Z,78.16
2022-12-27T22:43:16.919Z,78.18
2022-12-27T22:46:12.677Z,78.16
2022-12-27T22:49:04.659Z,77.96
2022-12-27T22:51:54.111Z,78.12
2022-12-27T22:55:05.280Z,78.08
2022-12-27T22:57:53.774Z,77.84
2022-12-27T23:00:43.456Z,78.04
2022-12-27T23:03:32.924Z,77.87
2022-12-27T23:06:24.611Z,78.00
2022-12-27T23:09:13.819Z,77.88
2022-12-27T23:12:03.155Z,78.10
2022-12-27T23:14:52.422Z,78.16
2022-12-27T23:17:41.840Z,78.03
2022-12-27T23:20:34.261Z,77.89
2022-12-27T23:23:26.082Z,78.06
2022-12-27T23:26:18.130Z,77.93
2022-12-27T23:29:08.522Z,77.59
2022-12-27T23:31:59.273Z,77.29
2022-12-27T23:34:48.631Z,76.78
2022-12-27T23:37:37.968Z,76.50
2022-12-27T23:40:28.947Z,76.62
2022-12-27T23:43:51.012Z,76.47
2022-12-27T23:46:30.678Z,77.20
2022-12-27T23:49:19.959Z,77.34
2022-12-27T23:52:09.159Z,77.57
2022-12-27T23:54:58.777Z,77.37
2022-12-27T23:57:49.386Z,77.61
